»·PEaware :: DCM720 KIFP-KSEZ

DCM720 :: KIFP-KSEZ

FLIGHT INFORMATION

Flight Status: Arrived
Operator: Unknown
More flights by this operator :: More flights under this callsign
Pilot: Shawn N. (11060)
Aircraft: BOEING 737-800
(B738)
More flights by this aircraft type
Origin: KIFP Laughlin/Bullhead Intl
United States
Destination: KSEZ Sedona
United States
More flights between these airports :: More routes between these airports
Route: EED V12 JUWSO
File this flight plan on PilotEdge
Remarks:
Altitude:
(Current/Filed)
25,000ft
Speed:
(Current/Filed)
430kts
Departed: 02-Aug-18 09:38 PM
Arrived: 02-Aug-18 10:08 PM
Distance/Time
Traveled:
137nm/0:29
Distance/Time
To Go:
Arrived

Flight Plot

Page will automatically refresh every two minutes.

Flight plan parsing failed; only flown route is shown


Map Options




Map Legend


Flown Route
Filed Route
Departure Airport
Arrival Airport
Navaid (VOR, NDB)
Fix

Horizontal Profiles

Position Reports

Time Latitude Longitude Heading Altitude Ground
Speed
02-Aug-18 21:18 35.164317 -114.556282 87 702ft 0kts
02-Aug-18 21:19 35.164317 -114.556282 87 702ft 0kts
02-Aug-18 21:20 35.164317 -114.556282 87 702ft 0kts
02-Aug-18 21:21 35.164317 -114.556282 87 702ft 0kts
02-Aug-18 21:22 35.164317 -114.556282 87 702ft 0kts
02-Aug-18 21:23 35.164317 -114.556282 87 702ft 0kts
02-Aug-18 21:24 35.164317 -114.556282 87 702ft 0kts
02-Aug-18 21:25 35.164317 -114.556282 87 702ft 0kts
02-Aug-18 21:26 35.164317 -114.556282 87 702ft 0kts
02-Aug-18 21:27 35.164317 -114.556282 87 702ft 0kts
02-Aug-18 21:28 35.164317 -114.556282 87 702ft 0kts
02-Aug-18 21:29 35.164314 -114.556470 100 702ft 2kts
02-Aug-18 21:30 35.164681 -114.556839 180 702ft 1kts
02-Aug-18 21:31 35.164711 -114.556839 177 702ft 0kts
02-Aug-18 21:32 35.164711 -114.556839 177 702ft 0kts
02-Aug-18 21:33 35.164711 -114.556839 177 702ft 0kts
02-Aug-18 21:34 35.164030 -114.556789 176 702ft 11kts
02-Aug-18 21:35 35.161737 -114.558485 176 702ft 16kts
02-Aug-18 21:36 35.156555 -114.558090 170 702ft 21kts
02-Aug-18 21:37 35.150240 -114.557644 175 702ft 24kts
02-Aug-18 21:38 35.145445 -114.557716 299 702ft 0kts
02-Aug-18 21:39 35.159739 -114.559718 355 726ft 157kts
02-Aug-18 21:40 35.194802 -114.583953 251 3498ft 180kts
02-Aug-18 21:41 35.145299 -114.559386 155 5572ft 270kts
02-Aug-18 21:42 35.071017 -114.540274 170 9103ft 283kts
02-Aug-18 21:43 34.988473 -114.522522 170 11764ft 321kts
02-Aug-18 21:44 34.899672 -114.503007 170 15154ft 337kts
02-Aug-18 21:45 34.817645 -114.477376 150 18199ft 355kts
02-Aug-18 21:46 34.763213 -114.376208 98 21187ft 387kts
02-Aug-18 21:47 34.759606 -114.258033 93 22888ft 405kts
02-Aug-18 21:48 34.756620 -114.123432 93 22975ft 406kts
02-Aug-18 21:49 34.753057 -113.985228 93 24901ft 419kts
02-Aug-18 21:50 34.748961 -113.838012 93 24905ft 450kts
02-Aug-18 21:51 34.744432 -113.685208 93 24900ft 454kts
02-Aug-18 21:52 34.739605 -113.532050 93 25072ft 453kts
02-Aug-18 21:53 34.734778 -113.379413 93 25124ft 448kts
02-Aug-18 21:54 34.730432 -113.237757 93 25266ft 421kts
02-Aug-18 21:55 34.726507 -113.107240 93 25267ft 421kts
02-Aug-18 21:56 34.721827 -112.968922 94 22822ft 404kts
02-Aug-18 21:57 34.716866 -112.835539 94 20307ft 387kts
02-Aug-18 21:58 34.712040 -112.707645 93 17984ft 369kts
02-Aug-18 21:59 34.707230 -112.585267 93 15490ft 361kts
02-Aug-18 22:00 34.705534 -112.465283 78 14262ft 358kts
02-Aug-18 22:01 34.730841 -112.347848 75 14102ft 359kts
02-Aug-18 22:02 34.756606 -112.231516 75 13228ft 351kts
02-Aug-18 22:03 34.776672 -112.140725 75 12403ft 317kts
02-Aug-18 22:04 34.796168 -112.025881 94 11084ft 279kts
02-Aug-18 22:05 34.791447 -111.950105 94 9644ft 248kts
02-Aug-18 22:06 34.788074 -111.873821 79 7699ft 209kts
02-Aug-18 22:07 34.821453 -111.822189 39 5380ft 145kts
02-Aug-18 22:08 34.844619 -111.793424 46 4763ft 136kts
02-Aug-18 22:09 34.851142 -111.785339 230 4760ft 13kts
02-Aug-18 22:10 34.849520 -111.789049 45 4760ft 8kts
02-Aug-18 22:11 34.849796 -111.788674 315 4760ft 0kts
02-Aug-18 22:12 34.849796 -111.788674 315 4760ft 0kts

Navigation Log

Ident Type
Flight plan parsing failed, navigation log unavailable